Terminal Aerodrome Forecast
Issued by NWS Duluth, MN

Home | Current Version | Previous Version | Text Only | Print | Product List | Glossary On
Versions: 1 2 3 4 5 6 7 8 9 10 11 12 13 14 15 16 17 18 19 20 21 22 23 24 25 26 27 28 29 30 31 32
000
FTUS43 KDLH 201300 AAA
TAFINL
TAF AMD
KINL 201352Z 2014/2112 29009KT 4SM BR OVC005
     FM201600 29008G15KT P6SM BKN015
     FM201800 28008KT P6SM SCT030
     FM202000 27008KT P6SM -TSRA BKN035CB
     FM210000 30005KT P6SM BKN035
     FM210300 30005KT P6SM BKN025=

USA.gov is the U.S. government's official web portal to all federal, state and local government web resources and services.